createdAt,value
2023-04-06T00:01:06.612Z,2.73
2023-04-06T00:03:36.788Z,2.70
2023-04-06T00:06:06.531Z,2.53
2023-04-06T00:08:35.127Z,2.60
2023-04-06T00:11:03.970Z,2.63
2023-04-06T00:13:32.940Z,2.30
2023-04-06T00:16:01.597Z,2.50
2023-04-06T00:18:30.290Z,2.60
2023-04-06T00:21:00.206Z,2.70
2023-04-06T00:23:28.787Z,2.60
2023-04-06T00:25:57.654Z,2.60
2023-04-06T00:28:27.363Z,2.80
2023-04-06T00:30:56.530Z,2.60
2023-04-06T00:33:26.035Z,2.47
2023-04-06T00:35:54.607Z,2.80
2023-04-06T00:38:25.307Z,2.70
2023-04-06T00:40:53.910Z,2.73
2023-04-06T00:43:23.092Z,2.90
2023-04-06T00:45:51.733Z,2.63
2023-04-06T00:48:21.119Z,2.83
2023-04-06T00:50:49.629Z,2.80
2023-04-06T00:53:18.556Z,2.87
2023-04-06T00:55:49.269Z,2.70
2023-04-06T00:58:18.453Z,2.90
2023-04-06T01:00:53.619Z,2.77
2023-04-06T01:03:25.704Z,2.90
2023-04-06T01:05:59.187Z,2.83
2023-04-06T01:08:33.360Z,2.73
2023-04-06T01:11:17.016Z,2.50
2023-04-06T01:13:45.711Z,2.73
2023-04-06T01:16:27.086Z,2.83
2023-04-06T01:19:11.707Z,3.13
2023-04-06T01:21:44.695Z,2.83
2023-04-06T01:24:17.501Z,2.37
2023-04-06T01:27:01.689Z,2.50
2023-04-06T01:29:38.042Z,2.83
2023-04-06T01:32:10.409Z,2.87
2023-04-06T01:34:47.986Z,3.07
2023-04-06T01:37:16.732Z,2.87
2023-04-06T01:39:47.336Z,2.50
2023-04-06T01:42:25.733Z,2.93
2023-04-06T01:44:54.506Z,2.63
2023-04-06T01:47:23.268Z,2.80
2023-04-06T01:49:52.328Z,2.73
2023-04-06T01:52:22.144Z,2.40
2023-04-06T01:54:56.412Z,2.87
2023-04-06T01:57:43.950Z,2.80
2023-04-06T02:00:24.153Z,2.77
2023-04-06T02:02:55.572Z,2.40
2023-04-06T02:05:34.330Z,2.50
2023-04-06T02:08:03.178Z,2.40
2023-04-06T02:10:38.578Z,2.90
2023-04-06T02:13:16.078Z,2.50
2023-04-06T02:15:49.863Z,2.40
2023-04-06T02:18:19.558Z,2.33
2023-04-06T02:20:48.183Z,2.43
2023-04-06T02:23:16.774Z,2.50
2023-04-06T02:25:47.000Z,2.53
2023-04-06T02:28:16.474Z,2.50
2023-04-06T02:30:45.452Z,2.70
2023-04-06T02:33:14.302Z,2.60
2023-04-06T02:35:47.754Z,2.70
2023-04-06T02:38:16.411Z,3.07
2023-04-06T02:40:46.388Z,2.57
2023-04-06T02:43:21.809Z,2.60
2023-04-06T02:45:54.467Z,2.47
2023-04-06T02:48:24.800Z,2.60
2023-04-06T02:50:55.528Z,2.73
2023-04-06T02:53:24.198Z,2.53
2023-04-06T02:55:54.159Z,2.40
2023-04-06T02:58:22.798Z,2.53
2023-04-06T03:00:55.937Z,2.60
2023-04-06T03:03:24.807Z,2.50
2023-04-06T03:05:55.376Z,2.43
2023-04-06T03:08:29.010Z,2.20
2023-04-06T03:10:59.458Z,2.27
2023-04-06T03:13:36.391Z,2.30
2023-04-06T03:16:06.028Z,2.20
2023-04-06T03:18:34.919Z,2.70
2023-04-06T03:21:03.556Z,2.30
2023-04-06T03:23:45.405Z,2.30
2023-04-06T03:26:15.965Z,2.13
2023-04-06T03:28:45.007Z,2.47
2023-04-06T03:31:13.730Z,2.30
2023-04-06T03:33:47.183Z,2.50
2023-04-06T03:36:22.835Z,2.20
2023-04-06T03:38:51.371Z,2.10
2023-04-06T03:41:23.223Z,2.47
2023-04-06T03:44:15.102Z,2.50
2023-04-06T03:46:46.252Z,2.30
2023-04-06T03:49:15.104Z,2.90
2023-04-06T03:51:47.300Z,2.67
2023-04-06T03:54:15.859Z,2.40
2023-04-06T03:56:46.503Z,2.37
2023-04-06T03:59:15.108Z,2.53
2023-04-06T04:01:44.007Z,2.87
2023-04-06T04:04:12.921Z,2.80
2023-04-06T04:06:42.150Z,2.80
2023-04-06T04:09:11.031Z,2.57
2023-04-06T04:11:40.076Z,2.60
2023-04-06T04:14:10.983Z,2.50
2023-04-06T04:16:40.474Z,2.83
2023-04-06T04:19:09.307Z,2.50
2023-04-06T04:21:46.510Z,2.67
2023-04-06T04:24:18.721Z,2.70
2023-04-06T04:26:47.478Z,2.90
2023-04-06T04:29:21.295Z,2.87
2023-04-06T04:31:50.369Z,2.50
2023-04-06T04:34:21.902Z,2.90
2023-04-06T04:36:52.500Z,2.90
2023-04-06T04:39:28.501Z,2.73
2023-04-06T04:42:04.484Z,2.97
2023-04-06T04:44:36.820Z,2.77
2023-04-06T04:47:06.287Z,3.20
2023-04-06T04:49:43.822Z,2.90
2023-04-06T04:52:15.066Z,3.03
2023-04-06T04:54:56.412Z,3.00
2023-04-06T04:57:28.877Z,3.40
2023-04-06T04:59:59.514Z,3.03
2023-04-06T05:02:28.149Z,2.50
2023-04-06T05:05:17.108Z,2.80
2023-04-06T05:07:46.704Z,2.73
2023-04-06T05:10:26.678Z,2.80
2023-04-06T05:13:00.369Z,2.40
2023-04-06T05:15:32.581Z,2.70
2023-04-06T05:18:08.420Z,2.60
2023-04-06T05:20:38.406Z,3.03
2023-04-06T05:23:07.585Z,2.97
2023-04-06T05:25:37.280Z,2.60
2023-04-06T05:28:17.104Z,2.83
2023-04-06T05:30:48.177Z,2.83
2023-04-06T05:33:18.181Z,2.87
2023-04-06T05:36:01.675Z,2.83
2023-04-06T05:38:31.095Z,2.87
2023-04-06T05:41:04.589Z,2.97
2023-04-06T05:43:35.093Z,2.67
2023-04-06T05:46:06.917Z,2.33
2023-04-06T05:48:36.341Z,2.60
2023-04-06T05:51:07.248Z,2.70
2023-04-06T05:53:44.929Z,2.90
2023-04-06T05:56:13.699Z,2.83
2023-04-06T05:58:43.560Z,2.57
2023-04-06T06:01:17.451Z,2.50
2023-04-06T06:03:49.075Z,2.67
2023-04-06T06:06:18.526Z,2.40
2023-04-06T06:09:07.682Z,2.80
2023-04-06T06:11:41.989Z,2.50
2023-04-06T06:14:12.088Z,2.60
2023-04-06T06:16:44.071Z,2.67
2023-04-06T06:19:15.654Z,3.10
2023-04-06T06:21:45.669Z,2.57
2023-04-06T06:24:14.629Z,2.70
2023-04-06T06:26:44.170Z,2.90
2023-04-06T06:29:15.667Z,2.60
2023-04-06T06:31:45.988Z,2.60
2023-04-06T06:34:14.946Z,2.33
2023-04-06T06:36:47.617Z,2.33
2023-04-06T06:39:18.107Z,2.60
2023-04-06T06:41:47.024Z,2.50
2023-04-06T06:44:17.628Z,2.50
2023-04-06T06:46:47.780Z,2.17
2023-04-06T06:49:16.988Z,2.20
2023-04-06T06:51:46.739Z,2.47
2023-04-06T06:54:15.782Z,1.97
2023-04-06T06:56:44.372Z,2.20
2023-04-06T06:59:14.040Z,2.20
2023-04-06T07:01:42.904Z,2.10
2023-04-06T07:04:13.409Z,2.30
2023-04-06T07:06:42.117Z,2.20
2023-04-06T07:09:10.646Z,1.97
2023-04-06T07:11:39.146Z,1.93
2023-04-06T07:14:08.444Z,1.80
2023-04-06T07:16:37.885Z,2.00
2023-04-06T07:19:06.692Z,1.70
2023-04-06T07:21:38.081Z,2.13
2023-04-06T07:24:07.274Z,1.93
2023-04-06T07:26:35.946Z,2.30
2023-04-06T07:29:06.809Z,2.10
2023-04-06T07:31:36.955Z,2.43
2023-04-06T07:34:07.156Z,1.87
2023-04-06T07:36:38.844Z,2.03
2023-04-06T07:39:07.645Z,2.10
2023-04-06T07:41:37.778Z,2.03
2023-04-06T07:44:07.604Z,2.30
2023-04-06T07:46:37.319Z,2.37
2023-04-06T07:49:07.123Z,1.90
2023-04-06T07:51:40.710Z,2.03
2023-04-06T07:54:09.810Z,2.17
2023-04-06T07:56:38.347Z,1.90
2023-04-06T07:59:07.058Z,2.03
2023-04-06T08:01:35.737Z,2.20
2023-04-06T08:04:04.775Z,2.23
2023-04-06T08:06:33.505Z,2.40
2023-04-06T08:09:04.013Z,1.93
2023-04-06T08:11:32.812Z,2.33
2023-04-06T08:14:01.427Z,1.97
2023-04-06T08:16:30.815Z,2.20
2023-04-06T08:19:00.250Z,2.17
2023-04-06T08:21:28.956Z,2.07
2023-04-06T08:23:57.522Z,2.17
2023-04-06T08:26:27.538Z,2.27
2023-04-06T08:28:56.306Z,2.17
2023-04-06T08:31:25.358Z,2.33
2023-04-06T08:33:54.207Z,2.00
2023-04-06T08:36:23.957Z,2.23
2023-04-06T08:38:53.444Z,2.17
2023-04-06T08:41:22.329Z,2.30
2023-04-06T08:43:59.383Z,2.30
2023-04-06T08:46:30.857Z,2.43
2023-04-06T08:49:01.666Z,2.17
2023-04-06T08:51:32.408Z,2.30
2023-04-06T08:54:02.820Z,2.47
2023-04-06T08:56:31.434Z,2.17
2023-04-06T08:59:02.179Z,2.17
2023-04-06T09:01:32.958Z,2.57
2023-04-06T09:04:03.192Z,2.40
2023-04-06T09:06:33.018Z,2.27
2023-04-06T09:09:01.910Z,2.80
2023-04-06T09:11:30.589Z,2.40
2023-04-06T09:14:00.907Z,2.40
2023-04-06T09:16:30.021Z,2.57
2023-04-06T09:19:07.148Z,2.57
2023-04-06T09:21:35.999Z,2.53
2023-04-06T09:24:05.901Z,2.60
2023-04-06T09:26:35.880Z,3.27
2023-04-06T09:29:07.322Z,3.10
2023-04-06T09:31:36.633Z,2.73
2023-04-06T09:34:05.195Z,2.87
2023-04-06T09:36:34.675Z,3.17
2023-04-06T09:39:06.033Z,3.17
2023-04-06T09:41:36.699Z,3.50
2023-04-06T09:44:08.765Z,2.77
2023-04-06T09:46:54.845Z,2.83
2023-04-06T09:49:33.179Z,2.83
2023-04-06T09:52:04.260Z,2.53
2023-04-06T09:54:34.086Z,3.23
2023-04-06T09:57:13.290Z,3.27
2023-04-06T09:59:53.390Z,3.20
2023-04-06T10:02:46.649Z,3.40
2023-04-06T10:05:26.864Z,2.93
2023-04-06T10:08:01.110Z,3.27
2023-04-06T10:10:31.464Z,3.57
2023-04-06T10:13:01.199Z,3.50
2023-04-06T10:15:32.197Z,3.90
2023-04-06T10:18:01.699Z,2.83
2023-04-06T10:20:43.622Z,3.13
2023-04-06T10:23:17.050Z,3.00
2023-04-06T10:25:56.007Z,3.67
2023-04-06T10:28:25.858Z,3.63
2023-04-06T10:31:02.419Z,3.43
2023-04-06T10:33:31.386Z,4.17
2023-04-06T10:36:00.404Z,4.50
2023-04-06T10:38:41.934Z,3.97
2023-04-06T10:41:13.170Z,4.00
2023-04-06T10:43:43.467Z,3.87
2023-04-06T10:46:13.807Z,3.80
2023-04-06T10:48:44.220Z,4.00
2023-04-06T10:51:15.131Z,3.97
2023-04-06T10:53:46.326Z,4.00
2023-04-06T10:56:17.016Z,3.80
2023-04-06T10:58:50.214Z,4.10
2023-04-06T11:01:23.566Z,4.17
2023-04-06T11:03:55.276Z,3.77
2023-04-06T11:06:27.714Z,4.20
2023-04-06T11:08:58.204Z,4.07
2023-04-06T11:11:28.552Z,4.13
2023-04-06T11:13:59.021Z,3.97
2023-04-06T11:16:31.984Z,3.77
2023-04-06T11:19:03.933Z,3.93
2023-04-06T11:21:37.813Z,4.40
2023-04-06T11:24:09.156Z,3.97
2023-04-06T11:26:46.809Z,3.70
2023-04-06T11:29:15.990Z,3.80
2023-04-06T11:31:50.644Z,4.47
2023-04-06T11:34:21.133Z,5.00
2023-04-06T11:36:52.634Z,4.00
2023-04-06T11:39:24.898Z,4.03
2023-04-06T11:41:56.647Z,4.33
2023-04-06T11:44:35.281Z,4.87
2023-04-06T11:47:07.327Z,4.27
2023-04-06T11:49:40.424Z,4.60
2023-04-06T11:52:18.681Z,4.90
2023-04-06T11:54:48.600Z,4.53
2023-04-06T11:57:17.601Z,4.57
2023-04-06T11:59:46.763Z,5.13
2023-04-06T12:02:19.006Z,4.63
2023-04-06T12:04:47.943Z,4.77
2023-04-06T12:07:17.002Z,5.00
2023-04-06T12:09:45.775Z,4.77
2023-04-06T12:12:14.271Z,4.80
2023-04-06T12:14:43.105Z,4.83
2023-04-06T12:17:11.645Z,4.33
2023-04-06T12:19:42.144Z,3.93
2023-04-06T12:22:10.796Z,4.80
2023-04-06T12:24:39.251Z,4.07
2023-04-06T12:27:10.484Z,4.10
2023-04-06T12:29:39.592Z,3.97
2023-04-06T12:32:09.323Z,3.77
2023-04-06T12:34:38.358Z,4.10
2023-04-06T12:37:09.000Z,3.97
2023-04-06T12:39:37.784Z,3.93
2023-04-06T12:42:06.378Z,3.50
2023-04-06T12:44:35.098Z,3.83
2023-04-06T12:47:04.227Z,3.70
2023-04-06T12:49:33.246Z,3.73
2023-04-06T12:52:01.778Z,3.70
2023-04-06T12:54:31.729Z,3.77
2023-04-06T12:57:00.254Z,3.87
2023-04-06T12:59:35.480Z,3.53
2023-04-06T13:02:06.585Z,3.53
2023-04-06T13:04:35.764Z,3.57
2023-04-06T13:07:04.536Z,3.90
2023-04-06T13:09:35.005Z,3.90
2023-04-06T13:12:03.499Z,3.67
2023-04-06T13:14:32.425Z,4.00
2023-04-06T13:17:01.199Z,3.47
2023-04-06T13:19:29.935Z,3.90
2023-04-06T13:21:58.812Z,4.20
2023-04-06T13:24:27.549Z,4.13
2023-04-06T13:26:58.078Z,3.87
2023-04-06T13:29:27.178Z,3.83
2023-04-06T13:31:55.941Z,3.30
2023-04-06T13:34:24.506Z,3.90
2023-04-06T13:36:53.388Z,4.00
2023-04-06T13:39:21.912Z,3.40
2023-04-06T13:41:50.674Z,3.27
2023-04-06T13:44:21.385Z,3.07
2023-04-06T13:46:50.082Z,3.20
2023-04-06T13:49:18.974Z,3.23
2023-04-06T13:51:48.060Z,3.67
2023-04-06T13:54:16.734Z,3.33
2023-04-06T13:56:45.134Z,3.33
2023-04-06T13:59:13.620Z,3.57
2023-04-06T14:01:43.610Z,3.30
2023-04-06T14:04:12.133Z,3.43
2023-04-06T14:06:40.813Z,3.47
2023-04-06T14:09:09.856Z,3.40
2023-04-06T14:11:39.043Z,3.30
2023-04-06T14:14:07.963Z,3.00
2023-04-06T14:16:36.791Z,2.70
2023-04-06T14:19:06.965Z,2.50
2023-04-06T14:21:35.397Z,2.67
2023-04-06T14:24:05.422Z,3.10
2023-04-06T14:26:34.067Z,3.43
2023-04-06T14:29:02.633Z,3.13
2023-04-06T14:31:31.129Z,3.13
2023-04-06T14:34:00.501Z,2.97
2023-04-06T14:36:30.330Z,2.77
2023-04-06T14:39:00.335Z,3.43
2023-04-06T14:41:29.069Z,2.80
2023-04-06T14:43:57.780Z,3.10
2023-04-06T14:46:26.600Z,3.13
2023-04-06T14:48:56.614Z,2.97
2023-04-06T14:51:26.895Z,2.97
2023-04-06T14:53:56.895Z,2.97
2023-04-06T14:56:26.639Z,3.20
2023-04-06T14:58:55.962Z,3.23
2023-04-06T15:01:24.566Z,3.33
2023-04-06T15:03:53.061Z,3.53
2023-04-06T15:06:21.906Z,3.50
2023-04-06T15:08:51.290Z,3.37
2023-04-06T15:11:21.463Z,3.37
2023-04-06T15:13:49.977Z,3.27
2023-04-06T15:16:18.514Z,3.70
2023-04-06T15:18:47.228Z,3.40
2023-04-06T15:21:15.666Z,3.60
2023-04-06T15:23:44.037Z,3.13
2023-04-06T15:26:12.445Z,3.20
2023-04-06T15:28:42.601Z,3.07
2023-04-06T15:31:32.988Z,3.17
2023-04-06T15:34:06.515Z,3.07
2023-04-06T15:36:35.098Z,2.73
2023-04-06T15:39:04.121Z,2.53
2023-04-06T15:41:32.719Z,2.60
2023-04-06T15:44:05.012Z,2.97
2023-04-06T15:46:33.754Z,2.80
2023-04-06T15:49:02.236Z,2.80
2023-04-06T15:51:31.564Z,3.00
2023-04-06T15:54:00.363Z,2.60
2023-04-06T15:56:28.795Z,2.50
2023-04-06T15:58:57.384Z,2.60
2023-04-06T16:01:27.606Z,2.40
2023-04-06T16:03:56.234Z,2.57
2023-04-06T16:06:24.848Z,2.13
2023-04-06T16:08:53.168Z,2.50
2023-04-06T16:11:21.671Z,2.37
2023-04-06T16:13:55.040Z,2.17
2023-04-06T16:16:23.865Z,2.13
2023-04-06T16:18:53.924Z,2.00
2023-04-06T16:21:22.616Z,2.03
2023-04-06T16:23:51.051Z,2.03
2023-04-06T16:26:19.869Z,2.00
2023-04-06T16:28:49.336Z,2.13
2023-04-06T16:31:22.988Z,1.97
2023-04-06T16:33:55.771Z,2.10
2023-04-06T16:36:25.039Z,1.90
2023-04-06T16:38:53.576Z,1.90
2023-04-06T16:41:22.610Z,2.40
2023-04-06T16:43:51.624Z,2.23
2023-04-06T16:46:22.512Z,2.37
2023-04-06T16:48:50.918Z,2.10
2023-04-06T16:51:21.769Z,2.17
2023-04-06T16:53:50.302Z,2.13
2023-04-06T16:56:18.666Z,2.60
2023-04-06T16:58:47.585Z,2.63
2023-04-06T17:01:20.912Z,2.37
2023-04-06T17:03:49.695Z,2.20
2023-04-06T17:06:18.568Z,1.90
2023-04-06T17:08:49.429Z,1.90
2023-04-06T17:11:23.400Z,2.00
2023-04-06T17:13:54.098Z,1.77
2023-04-06T17:16:22.724Z,1.90
2023-04-06T17:18:51.239Z,1.63
2023-04-06T17:21:20.902Z,1.90
2023-04-06T17:23:50.862Z,2.20
2023-04-06T17:26:20.277Z,1.97
2023-04-06T17:28:49.108Z,2.13
2023-04-06T17:31:17.573Z,1.90
2023-04-06T17:33:47.603Z,1.80
2023-04-06T17:36:16.169Z,1.83
2023-04-06T17:38:45.801Z,2.00
2023-04-06T17:41:16.139Z,1.80
2023-04-06T17:43:44.614Z,2.20
2023-04-06T17:46:13.062Z,2.13
2023-04-06T17:48:41.782Z,2.03
2023-04-06T17:51:10.126Z,1.80
2023-04-06T17:53:38.540Z,1.70
2023-04-06T17:56:07.778Z,1.77
2023-04-06T17:58:37.687Z,1.47
2023-04-06T18:01:08.576Z,1.80
2023-04-06T18:03:37.068Z,1.60
2023-04-06T18:06:13.773Z,1.67
2023-04-06T18:08:43.212Z,1.27
2023-04-06T18:11:18.380Z,1.43
2023-04-06T18:13:48.766Z,1.70
2023-04-06T18:16:20.218Z,1.70
2023-04-06T18:18:49.245Z,1.40
2023-04-06T18:21:17.678Z,1.57
2023-04-06T18:23:46.445Z,1.80
2023-04-06T18:26:21.451Z,1.77
2023-04-06T18:28:51.868Z,1.90
2023-04-06T18:31:21.890Z,1.73
2023-04-06T18:33:52.916Z,1.83
2023-04-06T18:36:22.919Z,1.70
2023-04-06T18:38:51.428Z,1.70
2023-04-06T18:41:20.853Z,1.80
2023-04-06T18:43:50.863Z,1.70
2023-04-06T18:46:22.433Z,1.67
2023-04-06T18:48:50.997Z,1.50
2023-04-06T18:51:19.896Z,1.60
2023-04-06T18:53:48.253Z,1.70
2023-04-06T18:56:18.659Z,1.53
2023-04-06T18:58:49.236Z,1.77
2023-04-06T19:01:28.253Z,1.80
2023-04-06T19:03:58.888Z,1.63
2023-04-06T19:06:28.611Z,1.60
2023-04-06T19:08:57.296Z,1.60
2023-04-06T19:11:27.412Z,1.70
2023-04-06T19:13:56.517Z,1.60
2023-04-06T19:16:27.643Z,1.90
2023-04-06T19:18:56.408Z,1.70
2023-04-06T19:21:27.544Z,1.40
2023-04-06T19:23:57.132Z,1.70
2023-04-06T19:26:28.065Z,1.50
2023-04-06T19:28:56.554Z,1.70
2023-04-06T19:31:28.029Z,1.60
2023-04-06T19:33:57.570Z,1.70
2023-04-06T19:36:26.650Z,1.57
2023-04-06T19:38:55.760Z,1.70
2023-04-06T19:41:24.552Z,1.73
2023-04-06T19:43:53.357Z,1.70
2023-04-06T19:46:22.441Z,1.80
2023-04-06T19:48:52.405Z,1.50
2023-04-06T19:51:20.860Z,1.53
2023-04-06T19:53:49.207Z,1.67
2023-04-06T19:56:17.667Z,1.53
2023-04-06T19:58:46.067Z,1.57
2023-04-06T20:01:14.697Z,1.50
2023-04-06T20:03:43.791Z,1.50
2023-04-06T20:06:13.721Z,1.53
2023-04-06T20:08:42.177Z,1.50
2023-04-06T20:11:10.611Z,1.43
2023-04-06T20:13:39.497Z,1.60
2023-04-06T20:16:08.391Z,1.63
2023-04-06T20:18:37.180Z,1.70
2023-04-06T20:21:05.760Z,1.37
2023-04-06T20:23:37.586Z,1.50
2023-04-06T20:26:06.163Z,1.50
2023-04-06T20:28:34.635Z,1.43
2023-04-06T20:31:03.095Z,1.50
2023-04-06T20:33:31.950Z,1.70
2023-04-06T20:36:01.518Z,1.50
2023-04-06T20:38:33.788Z,1.43
2023-04-06T20:41:04.207Z,1.47
2023-04-06T20:43:32.671Z,1.30
2023-04-06T20:46:02.715Z,1.57
2023-04-06T20:48:33.419Z,1.40
2023-04-06T20:51:04.033Z,1.53
2023-04-06T20:53:32.726Z,1.67
2023-04-06T20:56:04.412Z,1.47
2023-04-06T20:58:32.893Z,1.50
2023-04-06T21:01:01.588Z,1.30
2023-04-06T21:03:30.397Z,1.27
2023-04-06T21:06:02.138Z,1.40
2023-04-06T21:08:30.708Z,1.30
2023-04-06T21:10:59.413Z,1.50
2023-04-06T21:13:29.628Z,1.27
2023-04-06T21:15:58.560Z,1.30
2023-04-06T21:18:27.348Z,1.33
2023-04-06T21:20:55.840Z,1.40
2023-04-06T21:23:24.244Z,1.40
2023-04-06T21:25:55.322Z,0.90
2023-04-06T21:28:24.172Z,1.07
2023-04-06T21:30:54.664Z,1.13
2023-04-06T21:33:23.625Z,1.30
2023-04-06T21:35:53.624Z,1.13
2023-04-06T21:38:22.369Z,1.10
2023-04-06T21:40:57.080Z,1.20
2023-04-06T21:43:25.618Z,1.20
2023-04-06T21:45:55.594Z,1.00
2023-04-06T21:48:24.201Z,1.00
2023-04-06T21:50:52.712Z,1.10
2023-04-06T21:53:21.392Z,1.00
2023-04-06T21:55:50.383Z,1.10
2023-04-06T21:58:19.278Z,1.17
2023-04-06T22:00:47.837Z,1.00
2023-04-06T22:03:18.220Z,1.00
2023-04-06T22:05:46.807Z,1.20
2023-04-06T22:08:25.477Z,0.90
2023-04-06T22:10:59.160Z,0.90
2023-04-06T22:13:28.181Z,0.90
2023-04-06T22:15:57.287Z,0.90
2023-04-06T22:18:27.255Z,1.03
2023-04-06T22:20:56.059Z,0.97
2023-04-06T22:23:24.560Z,0.80
2023-04-06T22:25:53.688Z,1.00
2023-04-06T22:28:22.321Z,0.90
2023-04-06T22:30:50.688Z,0.73
2023-04-06T22:33:19.701Z,0.87
2023-04-06T22:35:49.665Z,1.03
2023-04-06T22:38:18.387Z,0.80
2023-04-06T22:40:46.821Z,0.87
2023-04-06T22:43:15.498Z,0.70
2023-04-06T22:45:43.826Z,0.90
2023-04-06T22:48:12.575Z,0.90
2023-04-06T22:50:40.936Z,0.63
2023-04-06T22:53:11.059Z,0.90
2023-04-06T22:55:41.181Z,0.97
2023-04-06T22:58:09.582Z,0.90
2023-04-06T23:00:38.229Z,0.90
2023-04-06T23:03:07.368Z,0.77
2023-04-06T23:05:36.126Z,0.97
2023-04-06T23:08:04.640Z,1.00
2023-04-06T23:10:34.458Z,0.63
2023-04-06T23:13:02.920Z,0.80
2023-04-06T23:15:31.375Z,1.00
2023-04-06T23:17:59.861Z,0.80
2023-04-06T23:20:28.482Z,0.77
2023-04-06T23:22:57.611Z,1.00
2023-04-06T23:25:26.180Z,1.00
2023-04-06T23:27:56.110Z,0.90
2023-04-06T23:30:24.488Z,1.03
2023-04-06T23:32:52.946Z,0.93
2023-04-06T23:35:21.697Z,0.90
2023-04-06T23:37:50.055Z,0.90
2023-04-06T23:40:19.459Z,1.00
2023-04-06T23:42:47.989Z,1.10
2023-04-06T23:45:18.190Z,1.20
2023-04-06T23:47:46.915Z,1.00
2023-04-06T23:50:15.422Z,1.10
2023-04-06T23:52:43.781Z,1.10
2023-04-06T23:55:12.413Z,1.03
2023-04-06T23:57:40.785Z,1.27
